createdAt,value
2022-11-28T00:02:05.011Z,444.77
2022-11-28T00:04:35.434Z,418.20
2022-11-28T00:07:05.399Z,423.85
2022-11-28T00:09:34.977Z,438.70
2022-11-28T00:12:04.448Z,438.67
2022-11-28T00:14:33.916Z,431.05
2022-11-28T00:17:03.754Z,436.83
2022-11-28T00:19:33.108Z,435.55
2022-11-28T00:22:03.751Z,458.25
2022-11-28T00:24:33.515Z,437.45
2022-11-28T00:27:03.030Z,437.25
2022-11-28T00:29:32.936Z,428.67
2022-11-28T00:32:02.503Z,432.67
2022-11-28T00:34:32.228Z,435.20
2022-11-28T00:37:01.533Z,489.20
2022-11-28T00:39:31.147Z,447.13
2022-11-28T00:42:00.786Z,465.20
2022-11-28T00:44:30.328Z,436.30
2022-11-28T00:46:59.846Z,464.95
2022-11-28T00:49:29.283Z,459.73
2022-11-28T00:51:58.886Z,459.45
2022-11-28T00:54:28.722Z,457.88
2022-11-28T00:56:57.966Z,474.38
2022-11-28T00:59:27.285Z,465.67
2022-11-28T01:02:01.324Z,429.48
2022-11-28T01:04:33.595Z,447.88
2022-11-28T01:07:04.661Z,475.63
2022-11-28T01:09:36.422Z,470.80
2022-11-28T01:12:08.057Z,470.23
2022-11-28T01:14:39.623Z,500.67
2022-11-28T01:17:11.656Z,463.02
2022-11-28T01:19:42.905Z,486.50
2022-11-28T01:22:14.071Z,473.98
2022-11-28T01:24:45.906Z,481.67
2022-11-28T01:27:17.743Z,461.70
2022-11-28T01:29:50.545Z,468.05
2022-11-28T01:32:22.232Z,453.10
2022-11-28T01:34:53.738Z,470.27
2022-11-28T01:37:25.484Z,443.70
2022-11-28T01:39:56.503Z,483.65
2022-11-28T01:42:27.744Z,471.42
2022-11-28T01:45:24.696Z,478.58
2022-11-28T01:47:59.378Z,487.65
2022-11-28T01:50:33.648Z,464.70
2022-11-28T01:53:10.626Z,471.33
2022-11-28T01:55:55.458Z,487.20
2022-11-28T01:58:27.690Z,469.85
2022-11-28T02:00:59.240Z,482.40
2022-11-28T02:03:49.985Z,466.55
2022-11-28T02:06:24.779Z,464.83
2022-11-28T02:08:57.146Z,464.08
2022-11-28T02:12:01.212Z,435.63
2022-11-28T02:14:44.237Z,442.83
2022-11-28T02:17:47.302Z,423.15
2022-11-28T02:20:52.019Z,452.88
2022-11-28T02:23:32.079Z,473.08
2022-11-28T02:26:25.277Z,485.65
2022-11-28T02:29:09.004Z,450.10
2022-11-28T02:32:21.439Z,487.90
2022-11-28T02:35:24.561Z,478.83
2022-11-28T02:38:13.322Z,516.00
2022-11-28T02:41:04.504Z,494.10
2022-11-28T02:43:34.882Z,522.67
2022-11-28T02:46:09.594Z,545.60
2022-11-28T02:49:13.521Z,495.02
2022-11-28T02:51:50.829Z,471.45
2022-11-28T02:54:24.959Z,471.45
2022-11-28T02:56:57.475Z,485.08
2022-11-28T02:59:41.336Z,513.67
2022-11-28T03:02:32.278Z,505.10
2022-11-28T03:05:25.925Z,559.97
2022-11-28T03:08:34.090Z,562.28
2022-11-28T03:11:36.800Z,521.33
2022-11-28T03:14:45.674Z,486.35
2022-11-28T03:17:19.954Z,475.23
2022-11-28T03:20:08.378Z,489.70
2022-11-28T03:22:49.124Z,487.98
2022-11-28T03:25:42.456Z,497.45
2022-11-28T03:28:29.278Z,496.50
2022-11-28T03:31:08.464Z,510.85
2022-11-28T03:33:47.891Z,533.38
2022-11-28T03:36:23.914Z,535.97
2022-11-28T03:39:02.273Z,536.22
2022-11-28T03:42:04.546Z,546.30
2022-11-28T03:44:46.125Z,548.97
2022-11-28T03:47:16.218Z,558.15
2022-11-28T03:49:52.905Z,550.35
2022-11-28T03:52:48.169Z,575.28
2022-11-28T03:55:25.016Z,537.47
2022-11-28T03:58:08.912Z,548.30
2022-11-28T04:00:45.914Z,556.78
2022-11-28T04:03:38.602Z,571.58
2022-11-28T04:06:27.244Z,551.83
2022-11-28T04:09:16.260Z,533.92
2022-11-28T04:12:01.615Z,524.13
2022-11-28T04:14:38.595Z,477.75
2022-11-28T04:17:14.367Z,441.60
2022-11-28T04:19:53.494Z,438.35
2022-11-28T04:22:35.156Z,437.33
2022-11-28T04:25:13.182Z,423.23
2022-11-28T04:28:06.300Z,484.92
2022-11-28T04:30:38.409Z,395.58
2022-11-28T04:33:11.505Z,335.38
2022-11-28T04:35:48.863Z,358.25
2022-11-28T04:38:19.334Z,342.58
2022-11-28T04:40:58.831Z,334.30
2022-11-28T04:43:36.910Z,347.77
2022-11-28T04:46:19.414Z,359.13
2022-11-28T04:48:49.049Z,343.40
2022-11-28T04:51:18.495Z,364.33
2022-11-28T04:54:08.455Z,348.27
2022-11-28T04:56:59.059Z,292.95
2022-11-28T04:59:32.116Z,299.60
2022-11-28T05:02:06.124Z,288.30
2022-11-28T05:04:39.845Z,315.58
2022-11-28T05:07:10.987Z,313.42
2022-11-28T05:09:40.820Z,314.48
2022-11-28T05:12:10.748Z,256.95
2022-11-28T05:14:42.082Z,269.38
2022-11-28T05:17:14.643Z,286.95
2022-11-28T05:19:44.145Z,260.38
2022-11-28T05:22:13.551Z,234.98
2022-11-28T05:24:46.215Z,218.90
2022-11-28T05:27:16.072Z,225.48
2022-11-28T05:29:52.039Z,222.98
2022-11-28T05:32:21.936Z,237.18
2022-11-28T05:34:51.605Z,222.05
2022-11-28T05:37:20.912Z,224.27
2022-11-28T05:39:50.777Z,216.25
2022-11-28T05:42:20.273Z,225.40
2022-11-28T05:44:49.724Z,235.93
2022-11-28T05:47:21.592Z,202.37
2022-11-28T05:49:51.264Z,169.05
2022-11-28T05:52:20.731Z,200.23
2022-11-28T05:54:50.372Z,203.63
2022-11-28T05:57:19.850Z,197.38
2022-11-28T05:59:49.361Z,180.38
2022-11-28T06:02:19.053Z,179.75
2022-11-28T06:04:48.692Z,177.95
2022-11-28T06:07:23.709Z,184.50
2022-11-28T06:09:53.302Z,154.50
2022-11-28T06:12:22.735Z,152.73
2022-11-28T06:14:52.213Z,150.43
2022-11-28T06:17:21.778Z,167.98
2022-11-28T06:19:51.402Z,156.85
2022-11-28T06:22:20.959Z,134.40
2022-11-28T06:24:53.219Z,146.07
2022-11-28T06:27:23.247Z,118.82
2022-11-28T06:29:53.204Z,105.32
2022-11-28T06:32:22.988Z,120.05
2022-11-28T06:34:56.534Z,124.95
2022-11-28T06:37:46.760Z,137.43
2022-11-28T06:40:16.640Z,143.90
2022-11-28T06:42:45.977Z,146.07
2022-11-28T06:45:15.720Z,155.02
2022-11-28T06:47:45.111Z,171.10
2022-11-28T06:50:15.522Z,160.35
2022-11-28T06:52:45.234Z,160.07
2022-11-28T06:55:14.624Z,164.90
2022-11-28T06:57:44.054Z,183.27
2022-11-28T07:00:14.176Z,176.13
2022-11-28T07:02:43.651Z,196.60
2022-11-28T07:05:13.000Z,185.35
2022-11-28T07:07:53.845Z,252.63
2022-11-28T07:10:27.963Z,196.70
2022-11-28T07:13:05.451Z,178.25
2022-11-28T07:15:36.352Z,179.05
2022-11-28T07:18:06.499Z,178.02
2022-11-28T07:20:36.899Z,220.63
2022-11-28T07:23:09.769Z,230.27
2022-11-28T07:25:40.405Z,236.00
2022-11-28T07:28:10.704Z,221.73
2022-11-28T07:30:40.175Z,206.23
2022-11-28T07:33:09.640Z,207.18
2022-11-28T07:35:39.566Z,263.95
2022-11-28T07:38:14.811Z,242.73
2022-11-28T07:40:47.587Z,213.50
2022-11-28T07:43:17.378Z,216.00
2022-11-28T07:46:00.453Z,217.20
2022-11-28T07:48:35.689Z,219.60
2022-11-28T07:51:10.147Z,216.73
2022-11-28T07:53:40.925Z,181.30
2022-11-28T07:56:16.405Z,218.00
2022-11-28T07:58:48.109Z,173.05
2022-11-28T08:01:21.729Z,204.55
2022-11-28T08:03:51.806Z,199.43
2022-11-28T08:06:23.365Z,181.75
2022-11-28T08:08:53.843Z,169.35
2022-11-28T08:11:25.441Z,194.50
2022-11-28T08:13:56.548Z,197.15
2022-11-28T08:16:30.728Z,196.50
2022-11-28T08:19:03.359Z,182.02
2022-11-28T08:21:35.681Z,169.07
2022-11-28T08:26:35.463Z,146.52
2022-11-28T08:29:05.473Z,233.77
2022-11-28T08:31:38.880Z,165.63
2022-11-28T08:34:10.776Z,157.30
2022-11-28T08:36:40.705Z,169.23
2022-11-28T08:39:23.408Z,161.63
2022-11-28T08:41:58.323Z,159.27
2022-11-28T08:44:31.805Z,149.15
2022-11-28T08:47:01.788Z,131.70
2022-11-28T08:49:31.320Z,147.45
2022-11-28T08:52:01.785Z,132.88
2022-11-28T08:54:31.281Z,133.82
2022-11-28T08:57:04.720Z,132.75
2022-11-28T08:59:34.105Z,126.93
2022-11-28T09:02:03.710Z,130.20
2022-11-28T09:04:33.219Z,130.25
2022-11-28T09:07:03.220Z,120.95
2022-11-28T09:09:33.106Z,138.68
2022-11-28T09:12:02.666Z,137.25
2022-11-28T09:14:33.123Z,136.45
2022-11-28T09:17:02.867Z,152.13
2022-11-28T09:19:32.589Z,131.48
2022-11-28T09:22:02.355Z,154.80
2022-11-28T09:24:34.780Z,137.15
2022-11-28T09:27:05.710Z,137.63
2022-11-28T09:29:35.360Z,157.07
2022-11-28T09:32:05.008Z,131.70
2022-11-28T09:34:34.711Z,143.75
2022-11-28T09:37:05.154Z,120.20
2022-11-28T09:39:50.254Z,121.90
2022-11-28T09:42:40.559Z,112.43
2022-11-28T09:45:21.921Z,102.15
2022-11-28T09:48:03.094Z,106.60
2022-11-28T09:50:37.355Z,112.15
2022-11-28T09:53:36.227Z,113.60
2022-11-28T09:56:17.277Z,112.90
2022-11-28T09:59:12.551Z,100.70
2022-11-28T10:01:59.167Z,124.00
2022-11-28T10:04:58.434Z,145.50
2022-11-28T10:07:42.720Z,123.55
2022-11-28T10:10:27.346Z,112.80
2022-11-28T10:13:18.969Z,114.65
2022-11-28T10:16:22.116Z,119.47
2022-11-28T10:19:02.245Z,120.13
2022-11-28T10:21:43.946Z,107.15
2022-11-28T10:24:17.678Z,113.88
2022-11-28T10:26:55.351Z,117.95
2022-11-28T10:29:45.065Z,101.35
2022-11-28T10:32:33.166Z,97.88
2022-11-28T10:35:15.864Z,104.60
2022-11-28T10:37:45.387Z,105.47
2022-11-28T10:40:32.296Z,104.43
2022-11-28T10:43:28.461Z,99.85
2022-11-28T10:46:31.362Z,111.97
2022-11-28T10:49:21.614Z,120.50
2022-11-28T10:52:10.093Z,100.25
2022-11-28T10:55:01.389Z,100.13
2022-11-28T10:57:54.254Z,128.57
2022-11-28T11:00:23.983Z,109.65
2022-11-28T11:02:58.041Z,115.85
2022-11-28T11:05:32.362Z,113.07
2022-11-28T11:08:17.665Z,112.13
2022-11-28T11:11:10.107Z,112.40
2022-11-28T11:14:03.822Z,111.32
2022-11-28T11:16:54.897Z,130.70
2022-11-28T11:19:31.270Z,125.05
2022-11-28T11:22:02.816Z,108.55
2022-11-28T11:24:33.512Z,110.77
2022-11-28T11:27:16.558Z,115.00
2022-11-28T11:29:51.461Z,120.15
2022-11-28T11:32:28.948Z,134.15
2022-11-28T11:35:01.139Z,161.30
2022-11-28T11:37:37.105Z,144.73
2022-11-28T11:40:20.461Z,174.18
2022-11-28T11:42:59.415Z,168.75
2022-11-28T11:45:35.348Z,185.65
2022-11-28T11:48:06.180Z,173.15
2022-11-28T11:50:40.319Z,185.35
2022-11-28T11:53:12.682Z,183.50
2022-11-28T11:55:56.118Z,186.80
2022-11-28T11:58:45.420Z,182.88
2022-11-28T12:01:19.109Z,186.93
2022-11-28T12:04:17.746Z,178.85
2022-11-28T12:06:55.467Z,193.48
2022-11-28T12:09:39.061Z,194.35
2022-11-28T12:12:16.469Z,198.13
2022-11-28T12:14:49.164Z,188.48
2022-11-28T12:20:25.991Z,193.52
2022-11-28T12:23:06.918Z,220.75
2022-11-28T12:25:41.851Z,214.45
2022-11-28T12:28:45.874Z,208.88
2022-11-28T12:31:49.078Z,204.23
2022-11-28T12:34:59.182Z,225.90
2022-11-28T12:38:14.264Z,214.52
2022-11-28T12:41:00.497Z,212.73
2022-11-28T12:43:58.388Z,196.45
2022-11-28T12:47:08.853Z,207.45
2022-11-28T12:49:59.794Z,210.55
2022-11-28T12:53:01.618Z,197.00
2022-11-28T12:55:45.981Z,197.75
2022-11-28T12:58:25.923Z,205.45
2022-11-28T13:01:37.763Z,245.55
2022-11-28T13:04:14.733Z,236.45
2022-11-28T13:07:14.461Z,248.88
2022-11-28T13:10:19.542Z,224.65
2022-11-28T13:12:56.908Z,280.35
2022-11-28T13:16:04.966Z,232.65
2022-11-28T13:18:51.799Z,264.65
2022-11-28T13:21:44.289Z,242.95
2022-11-28T13:24:28.164Z,255.85
2022-11-28T13:27:28.823Z,277.00
2022-11-28T13:30:29.568Z,260.80
2022-11-28T13:33:17.765Z,280.27
2022-11-28T13:35:48.231Z,266.67
2022-11-28T13:38:36.137Z,276.70
2022-11-28T13:41:52.581Z,273.23
2022-11-28T13:44:18.264Z,255.10
2022-11-28T13:46:48.440Z,257.90
2022-11-28T13:49:30.746Z,272.65
2022-11-28T13:52:24.816Z,269.15
2022-11-28T13:54:56.758Z,242.90
2022-11-28T13:57:32.412Z,271.05
2022-11-28T14:00:21.910Z,273.42
2022-11-28T14:02:57.604Z,282.83
2022-11-28T14:05:43.300Z,257.13
2022-11-28T14:08:39.095Z,261.42
2022-11-28T14:11:42.988Z,258.63
2022-11-28T14:14:39.729Z,275.65
2022-11-28T14:17:26.683Z,267.55
2022-11-28T14:20:12.144Z,263.15
2022-11-28T14:22:56.473Z,249.93
2022-11-28T14:25:31.030Z,253.27
2022-11-28T14:28:07.297Z,273.13
2022-11-28T14:30:46.816Z,269.17
2022-11-28T14:33:22.624Z,285.58
2022-11-28T14:35:55.176Z,245.20
2022-11-28T14:38:45.997Z,282.60
2022-11-28T14:41:18.039Z,256.88
2022-11-28T14:43:50.166Z,260.25
2022-11-28T14:46:30.060Z,255.98
2022-11-28T14:49:00.716Z,264.60
2022-11-28T14:52:15.895Z,263.23
2022-11-28T14:54:49.169Z,291.88
2022-11-28T14:57:23.557Z,266.95
2022-11-28T14:59:54.797Z,273.20
2022-11-28T15:03:01.926Z,256.35
2022-11-28T15:05:51.455Z,273.27
2022-11-28T15:08:34.822Z,276.88
2022-11-28T15:11:47.007Z,261.05
2022-11-28T15:14:26.175Z,266.05
2022-11-28T15:17:05.322Z,286.02
2022-11-28T15:19:47.277Z,273.00
2022-11-28T15:22:52.858Z,314.33
2022-11-28T15:25:26.810Z,289.75
2022-11-28T15:27:59.268Z,276.65
2022-11-28T15:30:28.976Z,269.35
2022-11-28T15:33:03.806Z,262.30
2022-11-28T15:35:34.572Z,271.48
2022-11-28T15:38:07.166Z,286.30
2022-11-28T15:40:40.779Z,294.77
2022-11-28T15:43:16.438Z,313.25
2022-11-28T15:45:53.179Z,283.23
2022-11-28T15:48:28.296Z,297.27
2022-11-28T15:51:03.693Z,336.92
2022-11-28T15:53:34.082Z,319.98
2022-11-28T15:56:13.131Z,330.05
2022-11-28T15:58:45.244Z,313.10
2022-11-28T16:01:27.745Z,316.20
2022-11-28T16:04:06.473Z,336.83
2022-11-28T16:06:42.511Z,288.60
2022-11-28T16:09:21.127Z,329.08
2022-11-28T16:11:54.063Z,338.88
2022-11-28T16:14:29.726Z,327.33
2022-11-28T16:17:05.275Z,322.27
2022-11-28T16:19:41.295Z,351.33
2022-11-28T16:22:20.648Z,330.25
2022-11-28T16:24:52.017Z,336.45
2022-11-28T16:27:39.868Z,327.48
2022-11-28T16:30:49.996Z,305.58
2022-11-28T16:33:43.375Z,322.02
2022-11-28T16:36:33.456Z,322.65
2022-11-28T16:39:20.419Z,340.67
2022-11-28T16:42:08.443Z,354.73
2022-11-28T16:44:39.437Z,343.00
2022-11-28T16:47:31.100Z,337.27
2022-11-28T16:50:18.335Z,362.95
2022-11-28T16:52:49.903Z,356.17
2022-11-28T16:55:31.543Z,335.90
2022-11-28T16:58:13.660Z,342.38
2022-11-28T17:00:53.249Z,350.67
2022-11-28T17:03:44.716Z,338.30
2022-11-28T17:06:40.490Z,339.30
2022-11-28T17:09:13.723Z,357.23
2022-11-28T17:11:46.602Z,357.75
2022-11-28T17:14:19.383Z,335.33
2022-11-28T17:16:49.002Z,338.00
2022-11-28T17:19:38.808Z,354.60
2022-11-28T17:22:09.351Z,335.02
2022-11-28T17:24:39.177Z,314.17
2022-11-28T17:27:11.523Z,334.33
2022-11-28T17:29:41.942Z,322.67
2022-11-28T17:32:15.932Z,309.15
2022-11-28T17:34:48.734Z,358.75
2022-11-28T17:37:19.024Z,367.15
2022-11-28T17:40:06.779Z,328.17
2022-11-28T17:42:37.324Z,322.83
2022-11-28T17:45:16.349Z,336.88
2022-11-28T17:47:46.059Z,340.90
2022-11-28T17:50:17.277Z,333.55
2022-11-28T17:52:46.997Z,359.75
2022-11-28T17:55:16.503Z,334.80
2022-11-28T17:57:47.605Z,348.85
2022-11-28T18:00:19.097Z,379.35
2022-11-28T18:02:48.543Z,345.50
2022-11-28T18:05:18.021Z,326.73
2022-11-28T18:07:47.806Z,316.50
2022-11-28T18:10:17.554Z,330.25
2022-11-28T18:12:47.226Z,376.95
2022-11-28T18:15:16.781Z,363.77
2022-11-28T18:17:47.072Z,355.33
2022-11-28T18:20:16.683Z,407.65
2022-11-28T18:22:47.298Z,384.35
2022-11-28T18:25:17.296Z,379.55
2022-11-28T18:27:46.920Z,382.58
2022-11-28T18:30:18.229Z,393.83
2022-11-28T18:32:49.384Z,365.70
2022-11-28T18:35:20.561Z,386.40
2022-11-28T18:37:50.385Z,378.27
2022-11-28T18:40:21.353Z,430.98
2022-11-28T18:42:51.083Z,427.23
2022-11-28T18:45:40.610Z,406.90
2022-11-28T18:48:10.333Z,417.08
2022-11-28T18:50:40.337Z,419.58
2022-11-28T18:53:09.913Z,417.05
2022-11-28T18:55:39.626Z,437.52
2022-11-28T18:58:09.226Z,437.58
2022-11-28T19:00:39.943Z,417.48
2022-11-28T19:03:10.485Z,418.70
2022-11-28T19:05:43.720Z,411.77
2022-11-28T19:08:13.365Z,418.55
2022-11-28T19:10:43.850Z,427.98
2022-11-28T19:13:13.653Z,436.60
2022-11-28T19:15:42.988Z,432.25
2022-11-28T19:18:12.433Z,421.90
2022-11-28T19:20:45.543Z,418.85
2022-11-28T19:23:15.078Z,426.00
2022-11-28T19:25:48.724Z,426.88
2022-11-28T19:28:18.809Z,420.85
2022-11-28T19:30:48.560Z,428.45
2022-11-28T19:33:19.180Z,427.65
2022-11-28T19:35:49.257Z,443.25
2022-11-28T19:38:23.163Z,453.65
2022-11-28T19:40:52.721Z,449.95
2022-11-28T19:43:23.147Z,435.38
2022-11-28T19:45:57.316Z,450.23
2022-11-28T19:48:26.792Z,462.77
2022-11-28T19:50:56.545Z,464.92
2022-11-28T19:53:26.350Z,459.88
2022-11-28T19:55:56.872Z,498.98
2022-11-28T19:58:27.533Z,488.15
2022-11-28T20:01:08.659Z,495.08
2022-11-28T20:03:40.141Z,458.48
2022-11-28T20:06:15.576Z,451.52
2022-11-28T20:08:45.266Z,449.52
2022-11-28T20:11:19.811Z,487.13
2022-11-28T20:13:50.448Z,472.80
2022-11-28T20:16:20.393Z,504.98
2022-11-28T20:18:49.982Z,470.20
2022-11-28T20:21:22.425Z,470.90
2022-11-28T20:23:56.984Z,439.00
2022-11-28T20:26:28.149Z,435.60
2022-11-28T20:28:58.204Z,445.42
2022-11-28T20:31:38.151Z,445.42
2022-11-28T20:34:07.782Z,422.00
2022-11-28T20:36:37.791Z,432.23
2022-11-28T20:39:08.822Z,462.17
2022-11-28T20:41:38.491Z,448.58
2022-11-28T20:44:08.390Z,479.67
2022-11-28T20:46:38.828Z,458.70
2022-11-28T20:49:09.250Z,461.88
2022-11-28T20:51:39.818Z,449.65
2022-11-28T20:54:10.172Z,471.55
2022-11-28T20:57:19.297Z,485.85
2022-11-28T20:59:34.305Z,507.60
2022-11-28T21:02:03.974Z,493.40
2022-11-28T21:04:33.442Z,492.48
2022-11-28T21:07:03.493Z,508.33
2022-11-28T21:09:32.687Z,494.35
2022-11-28T21:12:01.959Z,523.33
2022-11-28T21:14:31.681Z,515.47
2022-11-28T21:17:00.990Z,525.70
2022-11-28T21:19:31.030Z,505.10
2022-11-28T21:22:00.536Z,517.20
2022-11-28T21:24:29.893Z,505.10
2022-11-28T21:26:59.409Z,502.30
2022-11-28T21:29:28.749Z,510.60
2022-11-28T21:31:58.388Z,495.77
2022-11-28T21:34:27.680Z,508.77
2022-11-28T21:36:57.322Z,496.48
2022-11-28T21:39:27.210Z,517.10
2022-11-28T21:41:56.657Z,493.80
2022-11-28T21:44:26.180Z,453.88
2022-11-28T21:46:56.031Z,480.45
2022-11-28T21:49:25.747Z,486.90
2022-11-28T21:51:56.354Z,498.30
2022-11-28T21:54:26.557Z,497.75
2022-11-28T21:56:55.998Z,501.80
2022-11-28T21:59:25.789Z,505.02
2022-11-28T22:01:56.414Z,481.98
2022-11-28T22:04:26.111Z,463.23
2022-11-28T22:06:56.136Z,492.13
2022-11-28T22:09:25.676Z,471.13
2022-11-28T22:11:55.212Z,462.55
2022-11-28T22:14:24.916Z,463.20
2022-11-28T22:16:55.457Z,447.05
2022-11-28T22:19:25.714Z,442.92
2022-11-28T22:21:56.663Z,444.00
2022-11-28T22:24:26.865Z,450.27
2022-11-28T22:26:57.552Z,456.65
2022-11-28T22:29:27.166Z,474.52
2022-11-28T22:31:57.044Z,457.33
2022-11-28T22:34:26.654Z,466.90
2022-11-28T22:36:56.252Z,458.98
2022-11-28T22:39:25.829Z,479.10
2022-11-28T22:41:55.277Z,491.60
2022-11-28T22:44:24.777Z,511.90
2022-11-28T22:46:57.412Z,487.33
2022-11-28T22:49:27.497Z,478.77
2022-11-28T22:51:57.048Z,484.38
2022-11-28T22:54:26.510Z,476.45
2022-11-28T22:56:56.453Z,467.83
2022-11-28T22:59:26.537Z,467.05
2022-11-28T23:01:56.006Z,476.25
2022-11-28T23:04:25.763Z,468.63
2022-11-28T23:06:55.364Z,471.98
2022-11-28T23:09:25.037Z,425.00
2022-11-28T23:11:54.580Z,438.75
2022-11-28T23:14:24.685Z,427.67
2022-11-28T23:16:55.394Z,416.35
2022-11-28T23:19:25.448Z,427.85
2022-11-28T23:21:55.761Z,428.35
2022-11-28T23:24:25.306Z,425.20
2022-11-28T23:26:55.539Z,410.23
2022-11-28T23:29:25.626Z,417.88
2022-11-28T23:31:55.382Z,403.27
2022-11-28T23:34:26.821Z,398.67
2022-11-28T23:36:56.554Z,412.85
2022-11-28T23:39:26.479Z,410.42
2022-11-28T23:42:05.629Z,401.20
2022-11-28T23:44:35.026Z,423.38
2022-11-28T23:47:04.660Z,410.00
2022-11-28T23:49:34.164Z,411.55
2022-11-28T23:52:03.943Z,402.75
2022-11-28T23:54:33.480Z,383.77
2022-11-28T23:57:03.232Z,383.60
2022-11-28T23:59:32.762Z,384.60
